createdAt,value
2018-03-26T00:00:00.978Z,0.48
2018-03-26T00:02:28.451Z,0.55
2018-03-26T00:04:55.911Z,0.54
2018-03-26T00:07:23.368Z,0.49
2018-03-26T00:09:50.853Z,0.38
2018-03-26T00:12:18.308Z,0.32
2018-03-26T00:14:45.788Z,0.45
2018-03-26T00:17:13.255Z,0.42
2018-03-26T00:19:40.729Z,0.36
2018-03-26T00:22:08.276Z,0.23
2018-03-26T00:24:35.754Z,0.16
2018-03-26T00:27:03.538Z,0.12
2018-03-26T00:29:31.002Z,0.04
2018-03-26T00:31:58.479Z,-0.02
2018-03-26T00:34:25.942Z,-0.03
2018-03-26T00:36:53.432Z,-0.05
2018-03-26T00:39:20.922Z,-0.08
2018-03-26T00:41:48.400Z,-0.08
2018-03-26T00:44:15.859Z,-0.14
2018-03-26T00:46:43.326Z,-0.09
2018-03-26T00:49:10.791Z,-0.11
2018-03-26T00:51:38.251Z,-0.16
2018-03-26T00:54:05.775Z,-0.15
2018-03-26T00:56:33.361Z,-0.17
2018-03-26T00:59:00.844Z,-0.10
2018-03-26T01:01:28.328Z,-0.15
2018-03-26T01:03:55.837Z,-0.20
2018-03-26T01:06:23.345Z,-0.24
2018-03-26T01:08:50.820Z,-0.26
2018-03-26T01:11:18.332Z,-0.28
2018-03-26T01:13:45.863Z,-0.30
2018-03-26T01:16:13.369Z,-0.33
2018-03-26T01:18:40.831Z,-0.39
2018-03-26T01:21:08.303Z,-0.37
2018-03-26T01:23:35.791Z,-0.36
2018-03-26T01:26:04.515Z,-0.36
2018-03-26T01:28:32.720Z,-0.38
2018-03-26T01:31:00.179Z,-0.42
2018-03-26T01:33:27.639Z,-0.39
2018-03-26T01:35:55.140Z,-0.42
2018-03-26T01:38:22.622Z,-0.45
2018-03-26T01:40:50.112Z,-0.42
2018-03-26T01:43:17.564Z,-0.39
2018-03-26T01:45:45.052Z,-0.43
2018-03-26T01:48:12.531Z,-0.41
2018-03-26T01:50:39.997Z,-0.40
2018-03-26T01:53:07.580Z,-0.41
2018-03-26T01:55:35.039Z,-0.38
2018-03-26T01:58:02.534Z,-0.40
2018-03-26T02:00:30.004Z,-0.44
2018-03-26T02:02:57.466Z,-0.42
2018-03-26T02:05:24.948Z,-0.40
2018-03-26T02:07:52.458Z,-0.37
2018-03-26T02:10:19.932Z,-0.40
2018-03-26T02:12:47.438Z,-0.41
2018-03-26T02:15:14.929Z,-0.42
2018-03-26T02:17:42.399Z,-0.43
2018-03-26T02:20:09.942Z,-0.48
2018-03-26T02:22:37.479Z,-0.48
2018-03-26T02:25:05.102Z,-0.48
2018-03-26T02:27:32.566Z,-0.48
2018-03-26T02:30:00.097Z,-0.52
2018-03-26T02:32:27.558Z,-0.52
2018-03-26T02:34:55.024Z,-0.58
2018-03-26T02:37:22.492Z,-0.62
2018-03-26T02:39:49.967Z,-0.65
2018-03-26T02:42:17.507Z,-0.62
2018-03-26T02:44:45.020Z,-0.64
2018-03-26T02:47:12.484Z,-0.60
2018-03-26T02:49:39.972Z,-0.61
2018-03-26T02:52:07.434Z,-0.58
2018-03-26T02:54:34.893Z,-0.61
2018-03-26T02:57:02.376Z,-0.60
2018-03-26T02:59:29.834Z,-0.63
2018-03-26T03:01:57.291Z,-0.66
2018-03-26T03:04:24.782Z,-0.67
2018-03-26T03:06:52.299Z,-0.69
2018-03-26T03:09:19.786Z,-0.65
2018-03-26T03:11:47.274Z,-0.66
2018-03-26T03:14:14.731Z,-0.69
2018-03-26T03:16:42.315Z,-0.74
2018-03-26T03:19:09.819Z,-0.76
2018-03-26T03:21:37.311Z,-0.72
2018-03-26T03:24:04.789Z,-0.67
2018-03-26T03:26:32.272Z,-0.66
2018-03-26T03:28:59.728Z,-0.66
2018-03-26T03:31:27.210Z,-0.70
2018-03-26T03:33:56.345Z,-0.74
2018-03-26T03:36:23.813Z,-0.75
2018-03-26T03:38:51.297Z,-0.73
2018-03-26T03:41:18.765Z,-0.69
2018-03-26T03:43:46.366Z,-0.70
2018-03-26T03:46:13.852Z,-0.73
2018-03-26T03:48:41.317Z,-0.73
2018-03-26T03:51:09.948Z,-0.78
2018-03-26T03:53:37.757Z,-0.84
2018-03-26T03:56:05.223Z,-0.81
2018-03-26T03:58:32.699Z,-0.81
2018-03-26T04:01:00.156Z,-0.85
2018-03-26T04:03:27.623Z,-0.91
2018-03-26T04:05:55.100Z,-0.93
2018-03-26T04:08:22.654Z,-0.98
2018-03-26T04:10:50.115Z,-1.01
2018-03-26T04:13:17.600Z,-0.99
2018-03-26T04:15:45.084Z,-0.99
2018-03-26T04:18:13.128Z,-0.99
2018-03-26T04:20:40.591Z,-0.99
2018-03-26T04:23:08.062Z,-0.96
2018-03-26T04:25:35.536Z,-0.95
2018-03-26T04:28:03.018Z,-0.98
2018-03-26T04:30:30.507Z,-1.00
2018-03-26T04:32:58.004Z,-1.01
2018-03-26T04:35:25.506Z,-1.00
2018-03-26T04:37:52.968Z,-0.95
2018-03-26T04:40:20.442Z,-0.92
2018-03-26T04:42:47.919Z,-0.87
2018-03-26T04:45:15.375Z,-0.82
2018-03-26T04:47:43.036Z,-0.80
2018-03-26T04:50:10.495Z,-0.77
2018-03-26T04:52:37.980Z,-0.73
2018-03-26T04:55:05.460Z,-0.66
2018-03-26T04:57:33.459Z,-0.59
2018-03-26T05:00:00.935Z,-0.49
2018-03-26T05:02:28.453Z,-0.47
2018-03-26T05:04:55.925Z,-0.47
2018-03-26T05:07:23.398Z,-0.48
2018-03-26T05:09:50.866Z,-0.45
2018-03-26T05:12:18.319Z,-0.43
2018-03-26T05:14:45.895Z,-0.38
2018-03-26T05:17:13.379Z,-0.27
2018-03-26T05:19:40.833Z,-0.12
2018-03-26T05:22:08.386Z,0.14
2018-03-26T05:24:35.872Z,0.41
2018-03-26T05:27:03.386Z,0.53
2018-03-26T05:29:30.867Z,0.63
2018-03-26T05:31:58.328Z,0.73
2018-03-26T05:34:25.808Z,0.81
2018-03-26T05:36:53.274Z,0.80
2018-03-26T05:39:20.779Z,0.94
2018-03-26T05:41:48.255Z,1.05
2018-03-26T05:44:15.727Z,1.09
2018-03-26T05:46:43.215Z,1.19
2018-03-26T05:49:10.671Z,1.32
2018-03-26T05:51:39.114Z,1.56
2018-03-26T05:54:07.531Z,1.59
2018-03-26T05:56:35.152Z,1.51
2018-03-26T05:59:03.602Z,1.51
2018-03-26T06:01:31.376Z,1.61
2018-03-26T06:03:58.988Z,1.59
2018-03-26T06:06:26.534Z,1.65
2018-03-26T06:08:54.181Z,1.71
2018-03-26T06:11:21.744Z,1.82
2018-03-26T06:13:49.390Z,1.83
2018-03-26T06:16:16.876Z,1.97
2018-03-26T06:18:45.955Z,2.03
2018-03-26T06:21:13.426Z,2.23
2018-03-26T06:23:41.003Z,2.25
2018-03-26T06:26:08.559Z,2.27
2018-03-26T06:28:36.018Z,2.32
2018-03-26T06:31:03.475Z,2.39
2018-03-26T06:33:30.967Z,2.40
2018-03-26T06:35:58.737Z,2.56
2018-03-26T06:38:31.892Z,2.69
2018-03-26T06:40:59.501Z,2.81
2018-03-26T06:43:26.995Z,2.91
2018-03-26T06:45:54.507Z,3.11
2018-03-26T06:48:22.171Z,3.20
2018-03-26T06:50:49.675Z,3.23
2018-03-26T06:53:17.390Z,3.27
2018-03-26T07:08:43.419Z,3.43
2018-03-26T07:11:10.906Z,3.73
2018-03-26T07:13:38.394Z,3.56
2018-03-26T07:16:06.036Z,3.55
2018-03-26T07:18:34.049Z,3.47
2018-03-26T07:21:01.553Z,3.56
2018-03-26T07:23:29.043Z,3.72
2018-03-26T07:25:56.630Z,3.84
2018-03-26T07:28:24.348Z,4.01
2018-03-26T07:30:51.839Z,4.30
2018-03-26T07:33:19.341Z,4.68
2018-03-26T07:35:46.913Z,5.03
2018-03-26T07:38:14.319Z,5.37
2018-03-26T07:40:41.828Z,5.50
2018-03-26T07:43:09.321Z,5.60
2018-03-26T07:45:36.790Z,5.68
2018-03-26T07:48:04.297Z,5.74
2018-03-26T07:50:31.824Z,5.87
2018-03-26T07:52:59.993Z,5.98
2018-03-26T07:55:27.847Z,6.11
2018-03-26T07:57:55.472Z,6.38
2018-03-26T08:00:23.024Z,6.66
2018-03-26T08:02:50.598Z,6.81
2018-03-26T08:05:18.091Z,7.10
2018-03-26T08:07:45.748Z,7.19
2018-03-26T08:10:13.215Z,7.04
2018-03-26T08:12:40.699Z,7.04
2018-03-26T08:15:08.202Z,7.17
2018-03-26T08:17:35.705Z,7.27
2018-03-26T08:20:03.911Z,7.39
2018-03-26T08:22:31.440Z,7.55
2018-03-26T08:24:58.936Z,7.81
2018-03-26T08:27:26.468Z,7.90
2018-03-26T08:29:54.032Z,7.96
2018-03-26T08:32:21.527Z,8.03
2018-03-26T08:34:49.018Z,7.84
2018-03-26T08:37:16.540Z,7.64
2018-03-26T08:39:44.027Z,7.35
2018-03-26T08:42:11.585Z,7.13
2018-03-26T08:44:39.126Z,7.10
2018-03-26T08:47:06.612Z,7.14
2018-03-26T08:49:34.204Z,7.14
2018-03-26T08:52:01.688Z,7.25
2018-03-26T08:54:29.241Z,7.24
2018-03-26T08:56:56.808Z,7.24
2018-03-26T08:59:24.536Z,7.28
2018-03-26T09:01:52.101Z,7.01
2018-03-26T09:04:19.665Z,6.89
2018-03-26T09:06:47.175Z,6.82
2018-03-26T09:09:14.675Z,6.87
2018-03-26T09:11:42.225Z,6.97
2018-03-26T09:14:09.792Z,7.09
2018-03-26T09:16:37.370Z,7.27
2018-03-26T09:19:05.207Z,7.42
2018-03-26T09:21:32.753Z,7.41
2018-03-26T09:24:00.318Z,7.57
2018-03-26T09:26:28.317Z,7.48
2018-03-26T09:28:56.068Z,7.60
2018-03-26T09:31:23.646Z,7.69
2018-03-26T09:33:57.469Z,7.74
2018-03-26T09:36:25.066Z,7.61
2018-03-26T09:38:52.665Z,7.59
2018-03-26T09:41:20.460Z,7.92
2018-03-26T09:43:47.998Z,7.85
2018-03-26T09:46:15.516Z,7.87
2018-03-26T09:48:43.094Z,7.88
2018-03-26T09:51:10.596Z,7.94
2018-03-26T09:53:38.155Z,7.79
2018-03-26T09:56:05.669Z,7.90
2018-03-26T09:58:33.190Z,8.11
2018-03-26T10:01:02.480Z,8.34
2018-03-26T10:03:30.006Z,8.36
2018-03-26T10:05:57.582Z,8.22
2018-03-26T10:08:25.091Z,8.04
2018-03-26T10:10:52.556Z,8.19
2018-03-26T10:13:20.024Z,8.30
2018-03-26T10:15:47.505Z,8.30
2018-03-26T10:18:14.978Z,8.01
2018-03-26T10:20:42.460Z,8.37
2018-03-26T10:23:09.953Z,8.54
2018-03-26T10:25:37.458Z,8.69
2018-03-26T10:28:04.951Z,8.71
2018-03-26T10:30:32.452Z,8.94
2018-03-26T10:32:59.941Z,9.06
2018-03-26T10:35:27.416Z,9.28
2018-03-26T10:37:54.953Z,9.05
2018-03-26T10:40:22.487Z,8.95
2018-03-26T10:42:49.940Z,9.09
2018-03-26T10:45:17.464Z,9.26
2018-03-26T10:47:44.972Z,9.46
2018-03-26T10:50:12.530Z,9.41
2018-03-26T10:52:40.005Z,9.18
2018-03-26T10:55:07.475Z,9.08
2018-03-26T10:57:34.938Z,9.06
2018-03-26T11:00:02.459Z,9.16
2018-03-26T11:02:29.915Z,9.29
2018-03-26T11:04:57.378Z,9.31
2018-03-26T11:07:24.889Z,9.10
2018-03-26T11:09:52.349Z,9.28
2018-03-26T11:12:19.880Z,9.10
2018-03-26T11:14:47.375Z,8.85
2018-03-26T11:17:14.831Z,8.86
2018-03-26T11:19:42.312Z,9.13
2018-03-26T11:22:09.777Z,9.21
2018-03-26T11:24:37.246Z,8.96
2018-03-26T11:27:04.742Z,9.45
2018-03-26T11:29:32.219Z,9.32
2018-03-26T11:31:59.686Z,9.04
2018-03-26T11:34:27.169Z,9.08
2018-03-26T11:36:54.640Z,9.20
2018-03-26T11:39:22.108Z,9.17
2018-03-26T11:41:49.668Z,9.52
2018-03-26T11:44:17.141Z,9.75
2018-03-26T11:46:44.625Z,9.24
2018-03-26T11:49:12.083Z,9.55
2018-03-26T11:51:39.567Z,9.48
2018-03-26T11:54:07.124Z,9.60
2018-03-26T11:56:35.337Z,9.83
2018-03-26T11:59:03.438Z,10.00
2018-03-26T12:01:32.672Z,10.16
2018-03-26T12:04:00.175Z,9.90
2018-03-26T12:06:27.664Z,10.02
2018-03-26T12:08:55.224Z,10.46
2018-03-26T12:11:22.716Z,10.48
2018-03-26T12:13:50.192Z,10.43
2018-03-26T12:16:17.929Z,10.13
2018-03-26T12:18:48.043Z,10.39
2018-03-26T12:21:15.515Z,10.59
2018-03-26T12:23:54.761Z,10.70
2018-03-26T12:26:22.969Z,10.63
2018-03-26T12:29:02.234Z,11.01
2018-03-26T12:31:29.696Z,11.24
2018-03-26T12:36:58.364Z,11.09
2018-03-26T12:39:25.848Z,11.00
2018-03-26T12:41:57.117Z,10.79
2018-03-26T12:44:36.151Z,10.90
2018-03-26T12:47:03.657Z,10.56
2018-03-26T12:49:31.136Z,10.36
2018-03-26T12:52:10.327Z,10.33
2018-03-26T12:54:37.802Z,10.16
2018-03-26T12:57:17.060Z,10.43
2018-03-26T12:59:44.537Z,10.59
2018-03-26T13:02:33.990Z,10.26
2018-03-26T13:05:01.490Z,10.07
2018-03-26T13:07:28.970Z,10.50
2018-03-26T13:09:58.388Z,10.64
2018-03-26T13:12:25.871Z,10.38
2018-03-26T13:14:53.425Z,10.40
2018-03-26T13:17:20.981Z,10.40
2018-03-26T13:19:48.525Z,10.56
2018-03-26T13:22:15.994Z,10.86
2018-03-26T13:24:43.478Z,11.09
2018-03-26T13:27:10.930Z,11.63
2018-03-26T13:29:39.249Z,12.15
2018-03-26T13:32:06.737Z,12.52
2018-03-26T13:34:34.227Z,12.03
2018-03-26T13:37:01.683Z,12.01
2018-03-26T13:39:29.138Z,11.91
2018-03-26T13:41:56.669Z,11.71
2018-03-26T13:44:24.463Z,12.31
2018-03-26T13:46:51.916Z,12.19
2018-03-26T13:49:21.525Z,12.03
2018-03-26T13:51:48.991Z,11.55
2018-03-26T13:54:16.455Z,11.15
2018-03-26T13:56:43.960Z,11.01
2018-03-26T13:59:12.686Z,10.93
2018-03-26T14:01:40.171Z,10.84
2018-03-26T14:04:08.731Z,10.88
2018-03-26T14:06:37.165Z,10.84
2018-03-26T14:09:16.343Z,10.70
2018-03-26T14:11:55.521Z,10.69
2018-03-26T14:14:34.833Z,10.73
2018-03-26T14:17:14.090Z,10.70
2018-03-26T14:19:41.583Z,10.58
2018-03-26T14:22:09.053Z,10.66
2018-03-26T14:24:36.517Z,10.51
2018-03-26T14:27:03.998Z,10.64
2018-03-26T14:29:31.543Z,10.50
2018-03-26T14:31:59.015Z,10.37
2018-03-26T14:34:26.436Z,10.69
2018-03-26T14:36:53.922Z,10.77
2018-03-26T14:39:21.404Z,10.46
2018-03-26T14:41:48.875Z,10.38
2018-03-26T14:44:16.338Z,10.48
2018-03-26T14:46:43.823Z,10.49
2018-03-26T14:49:11.422Z,10.41
2018-03-26T14:51:38.915Z,10.47
2018-03-26T14:54:06.395Z,11.07
2018-03-26T14:56:33.874Z,11.96
2018-03-26T14:59:01.336Z,12.90
2018-03-26T15:01:28.837Z,12.66
2018-03-26T15:04:00.869Z,12.26
2018-03-26T15:06:28.360Z,11.77
2018-03-26T15:08:55.831Z,11.33
2018-03-26T15:11:23.304Z,10.94
2018-03-26T15:13:50.783Z,11.09
2018-03-26T15:16:18.248Z,11.09
2018-03-26T15:18:45.710Z,10.99
2018-03-26T15:21:13.185Z,10.90
2018-03-26T15:23:40.684Z,10.73
2018-03-26T15:26:08.153Z,10.49
2018-03-26T15:28:35.618Z,10.42
2018-03-26T15:31:03.140Z,10.55
2018-03-26T15:33:30.602Z,10.75
2018-03-26T15:35:58.074Z,11.02
2018-03-26T15:38:25.542Z,11.39
2018-03-26T15:40:53.033Z,11.60
2018-03-26T15:43:20.498Z,11.15
2018-03-26T15:45:47.969Z,10.89
2018-03-26T15:48:15.473Z,10.46
2018-03-26T15:50:42.952Z,10.09
2018-03-26T15:53:10.659Z,9.73
2018-03-26T15:55:38.108Z,9.55
2018-03-26T15:58:05.579Z,9.45
2018-03-26T16:00:33.039Z,9.33
2018-03-26T16:03:06.127Z,9.38
2018-03-26T16:05:33.583Z,9.42
2018-03-26T16:08:01.031Z,9.44
2018-03-26T16:10:28.637Z,9.46
2018-03-26T16:12:56.103Z,9.39
2018-03-26T16:15:23.576Z,9.42
2018-03-26T16:17:51.078Z,9.38
2018-03-26T16:20:18.564Z,9.53
2018-03-26T16:22:46.032Z,9.48
2018-03-26T16:25:13.534Z,9.48
2018-03-26T16:27:41.042Z,9.40
2018-03-26T16:30:08.522Z,9.35
2018-03-26T16:32:35.980Z,9.35
2018-03-26T16:35:03.461Z,9.21
2018-03-26T16:37:30.944Z,9.10
2018-03-26T16:39:58.398Z,9.03
2018-03-26T16:42:27.459Z,8.97
2018-03-26T16:44:54.944Z,8.77
2018-03-26T16:47:22.454Z,8.58
2018-03-26T16:49:49.931Z,8.43
2018-03-26T16:52:17.429Z,8.28
2018-03-26T16:54:44.928Z,8.23
2018-03-26T16:57:13.509Z,8.14
2018-03-26T16:59:41.098Z,8.08
2018-03-26T17:02:08.668Z,8.02
2018-03-26T17:04:37.054Z,7.98
2018-03-26T17:09:39.112Z,7.89
2018-03-26T17:12:08.349Z,7.76
2018-03-26T17:14:35.988Z,7.72
2018-03-26T17:17:03.560Z,7.76
2018-03-26T17:19:31.102Z,7.78
2018-03-26T17:21:58.589Z,7.76
2018-03-26T17:24:26.106Z,7.68
2018-03-26T17:26:53.760Z,7.59
2018-03-26T17:29:21.306Z,7.57
2018-03-26T17:31:49.762Z,7.55
2018-03-26T17:34:17.286Z,7.46
2018-03-26T17:36:45.062Z,7.50
2018-03-26T17:39:12.598Z,7.39
2018-03-26T17:41:40.172Z,7.39
2018-03-26T17:44:07.700Z,7.37
2018-03-26T17:46:35.237Z,7.56
2018-03-26T17:49:03.157Z,7.48
2018-03-26T17:51:30.700Z,7.41
2018-03-26T17:53:58.240Z,7.32
2018-03-26T17:56:25.773Z,7.33
2018-03-26T17:58:53.283Z,7.39
2018-03-26T18:01:20.844Z,7.48
2018-03-26T18:03:48.312Z,7.48
2018-03-26T18:06:15.820Z,7.41
2018-03-26T18:08:43.446Z,7.37
2018-03-26T18:11:10.975Z,7.40
2018-03-26T18:13:38.473Z,7.32
2018-03-26T18:16:07.060Z,7.37
2018-03-26T18:18:35.257Z,7.40
2018-03-26T18:21:02.917Z,7.44
2018-03-26T18:23:30.429Z,7.45
2018-03-26T18:25:57.981Z,7.40
2018-03-26T18:28:25.474Z,7.50
2018-03-26T18:30:53.066Z,7.43
2018-03-26T18:33:20.562Z,7.42
2018-03-26T18:35:51.198Z,7.40
2018-03-26T18:38:18.764Z,7.42
2018-03-26T18:40:47.479Z,7.39
2018-03-26T18:43:15.593Z,7.41
2018-03-26T18:45:44.400Z,7.31
2018-03-26T18:48:11.958Z,7.29
2018-03-26T18:50:39.580Z,7.30
2018-03-26T18:53:10.484Z,7.27
2018-03-26T18:55:38.025Z,7.28
2018-03-26T18:58:05.513Z,7.16
2018-03-26T19:00:33.124Z,7.18
2018-03-26T19:03:01.088Z,7.05
2018-03-26T19:05:28.716Z,6.97
2018-03-26T19:07:58.345Z,6.83
2018-03-26T19:10:25.913Z,6.82
2018-03-26T19:12:53.525Z,6.87
2018-03-26T19:15:21.310Z,6.91
2018-03-26T19:17:49.835Z,6.90
2018-03-26T19:20:17.456Z,6.91
2018-03-26T19:22:45.069Z,6.95
2018-03-26T19:25:12.673Z,6.98
2018-03-26T19:27:42.838Z,6.91
2018-03-26T19:30:12.058Z,6.79
2018-03-26T19:32:39.575Z,6.71
2018-03-26T19:35:07.096Z,6.67
2018-03-26T19:37:34.701Z,6.67
2018-03-26T19:40:02.225Z,6.65
2018-03-26T19:42:29.768Z,6.65
2018-03-26T19:44:57.320Z,6.79
2018-03-26T19:47:24.921Z,6.82
2018-03-26T19:49:52.508Z,6.76
2018-03-26T19:52:20.570Z,6.83
2018-03-26T19:54:48.458Z,6.83
2018-03-26T19:57:17.404Z,6.88
2018-03-26T19:59:44.898Z,6.88
2018-03-26T20:02:12.538Z,6.81
2018-03-26T20:04:43.112Z,6.80
2018-03-26T20:07:10.745Z,6.78
2018-03-26T20:09:38.244Z,6.84
2018-03-26T20:12:05.847Z,6.88
2018-03-26T20:14:33.473Z,6.99
2018-03-26T20:17:00.947Z,6.93
2018-03-26T20:19:28.481Z,6.86
2018-03-26T20:21:58.886Z,6.88
2018-03-26T20:24:26.503Z,6.72
2018-03-26T20:26:54.029Z,6.69
2018-03-26T20:29:22.943Z,6.80
2018-03-26T20:31:50.522Z,6.80
2018-03-26T20:34:18.084Z,6.77
2018-03-26T20:36:46.417Z,6.87
2018-03-26T20:39:13.944Z,6.92
2018-03-26T20:41:41.479Z,6.95
2018-03-26T20:44:08.985Z,7.07
2018-03-26T20:46:36.496Z,7.18
2018-03-26T20:51:40.950Z,7.27
2018-03-26T20:54:08.830Z,7.25
2018-03-26T20:56:36.368Z,7.29
2018-03-26T20:59:03.944Z,7.28
2018-03-26T21:01:31.458Z,7.33
2018-03-26T21:03:59.056Z,7.29
2018-03-26T21:06:27.287Z,7.26
2018-03-26T21:21:50.495Z,7.17
2018-03-26T21:24:18.024Z,7.27
2018-03-26T21:26:45.669Z,7.24
2018-03-26T21:29:13.163Z,7.25
2018-03-26T21:31:40.729Z,7.17
2018-03-26T21:34:08.235Z,7.17
2018-03-26T21:36:35.721Z,7.20
2018-03-26T21:39:03.236Z,7.29
2018-03-26T21:41:30.734Z,7.20
2018-03-26T21:43:58.221Z,7.19
2018-03-26T21:46:25.824Z,7.23
2018-03-26T21:48:53.320Z,7.11
2018-03-26T21:51:20.955Z,7.13
2018-03-26T21:53:48.613Z,7.13
2018-03-26T21:56:16.273Z,7.10
2018-03-26T21:58:43.836Z,7.12
2018-03-26T22:01:11.346Z,7.07
2018-03-26T22:03:38.879Z,7.03
2018-03-26T22:08:40.377Z,6.91
2018-03-26T22:11:07.906Z,6.87
2018-03-26T22:13:35.376Z,6.97
2018-03-26T22:16:02.914Z,6.85
2018-03-26T22:18:30.396Z,6.83
2018-03-26T22:20:57.917Z,6.81
2018-03-26T22:23:25.478Z,6.89
2018-03-26T22:25:52.992Z,6.83
2018-03-26T22:28:20.543Z,6.82
2018-03-26T22:30:48.065Z,6.78
2018-03-26T22:33:15.551Z,6.80
2018-03-26T22:35:43.153Z,6.78
2018-03-26T22:38:10.632Z,6.82
2018-03-26T22:40:38.167Z,6.85
2018-03-26T22:43:05.794Z,6.71
2018-03-26T22:45:33.267Z,6.70
2018-03-26T22:48:00.756Z,6.70
2018-03-26T22:50:28.752Z,6.72
2018-03-26T22:52:56.323Z,6.59
2018-03-26T22:55:23.830Z,6.64
2018-03-26T22:57:51.351Z,6.61
2018-03-26T23:00:18.883Z,6.66
2018-03-26T23:02:46.376Z,6.68
2018-03-26T23:05:14.826Z,6.68
2018-03-26T23:07:43.150Z,6.59
2018-03-26T23:10:10.692Z,6.67
2018-03-26T23:12:39.275Z,6.67
2018-03-26T23:15:07.369Z,6.71
2018-03-26T23:17:35.486Z,6.58
2018-03-26T23:20:03.502Z,6.53
2018-03-26T23:22:42.812Z,6.51
2018-03-26T23:25:10.367Z,6.51
2018-03-26T23:27:38.133Z,6.56
2018-03-26T23:30:10.069Z,6.62
2018-03-26T23:32:37.686Z,6.53
2018-03-26T23:35:06.167Z,6.58
2018-03-26T23:37:33.735Z,6.58
2018-03-26T23:40:01.347Z,6.59
2018-03-26T23:42:28.954Z,6.51
2018-03-26T23:44:56.868Z,6.49
2018-03-26T23:47:24.575Z,6.47
2018-03-26T23:49:52.085Z,6.51
2018-03-26T23:52:19.604Z,6.46
2018-03-26T23:54:47.238Z,6.43
2018-03-26T23:57:14.892Z,6.39
2018-03-26T23:59:42.462Z,6.43
